Hagatna, GU

3:06 PM ChST on 四月 27, 2017 (GMT +1000)
Maite | | Change Station

高度 140 ft 13.48 °N, 144.76 °E | Updated 15 seconds ago

だいたい曇
だいたい曇
83.2 °F
体感気温 92 °F
8.0
風 変数 風 から 南東
Gusts 17.0 Mph

今日
高い -- | 低 -- °F
--% 降水確率
昨日
高い -- | 低 -- °F
Precip. -- インチ
気圧 29.82 インチ
視程 10.0 マイル
やや曇 1400 ft
だいたい曇 2400 ft
体感気温(暑さ) 92 °F
露点温度 77 °F
湿度 82%
降水 0.13 インチ
積雪深 利用不可。
6:01 AM 6:35 PM
新月, 1% visible
METAR PGUM 270454Z 10009KT 10SM SCT014 BKN024 29/27 A2984 RMK AO2 RAE12 SLP096 P0007 T02890272 $
気圧 29.82 インチ
視程 10.0 マイル
やや曇 1400 ft
だいたい曇 2400 ft
体感気温(暑さ) 92 °F
露点温度 77 °F
湿度 82%
降水 0.13 インチ
積雪深 利用不可。
6:01 AM 6:35 PM
新月, 1% visible
METAR PGUM 270454Z 10009KT 10SM SCT014 BKN024 29/27 A2984 RMK AO2 RAE12 SLP096 P0007 T02890272 $

Get Severe Weather Alerts

Thanks for signing up!

Be on the lookout for a verification email in your inbox.

You'll start receiving the daily forecast at 8 AM.

×

10-Day Weather Forecast

Almanac

天文

Apr. 27, 2017 入り
実時間
常用薄明
航海薄明
天文薄明
可視光の長さ
可照時間
Tomorrow will be .
, % of the Moon is Illuminated

今日の極値

State Highs State Lows

Community

WunderBlog® & News

Nearby

空気品質

  空気品質 大気質指数 汚染物質
Not available.

積雪深

Station Depth 高度

地震活動

Distance Mag. Time & Date
Minimum magnitude displayed is 2.5.

沿岸の水温

地名 気温

Stations

最寄りの気象観測所

観測所位置 温度 体感気温(寒さ) 露点温度 湿度 Precip. 高度 更新日時 タイプする
                   

Watches & Warnings

There are currently no watches in effect.